createdAt,value
2023-04-12T00:03:09.142Z,999.242
2023-04-12T00:23:08.082Z,998.738
2023-04-12T00:43:08.076Z,998.303
2023-04-12T01:03:09.463Z,998.106
2023-04-12T01:23:07.670Z,997.839
2023-04-12T01:43:07.753Z,997.401
2023-04-12T02:03:09.155Z,997.251
2023-04-12T02:23:08.123Z,997.014
2023-04-12T02:43:08.179Z,996.569
2023-04-12T03:03:08.553Z,996.248
2023-04-12T03:23:07.465Z,995.806
2023-04-12T03:43:07.149Z,995.326
2023-04-12T04:03:09.343Z,994.862
2023-04-12T04:23:07.374Z,994.324
2023-04-12T04:43:08.926Z,993.993
2023-04-12T05:03:08.993Z,993.592
2023-04-12T05:23:07.858Z,993.347
2023-04-12T05:43:07.823Z,993.067
2023-04-12T06:03:09.069Z,992.764
2023-04-12T06:23:07.949Z,992.393
2023-04-12T06:43:07.953Z,992.18
2023-04-12T07:03:09.289Z,991.843
2023-04-12T07:23:07.195Z,991.533
2023-04-12T07:43:08.085Z,991.109
2023-04-12T08:03:09.653Z,990.873
2023-04-12T08:23:07.520Z,990.654
2023-04-12T08:43:07.413Z,990.382
2023-04-12T09:03:09.311Z,990.108
2023-04-12T09:23:07.394Z,989.796
2023-04-12T09:43:07.393Z,989.468
2023-04-12T10:03:08.958Z,989.261
2023-04-12T10:23:08.260Z,989.111
2023-04-12T10:43:07.286Z,988.863
2023-04-12T11:03:09.261Z,988.728
2023-04-12T11:23:11.768Z,988.664
2023-04-12T11:43:07.862Z,988.392
2023-04-12T12:03:10.167Z,988.378
2023-04-12T12:23:07.086Z,988.115
2023-04-12T12:43:08.100Z,988.271
2023-04-12T13:03:09.921Z,988.142
2023-04-12T13:23:08.233Z,988.159
2023-04-12T13:43:07.335Z,988.022
2023-04-12T14:03:08.932Z,987.966
2023-04-12T14:23:09.215Z,987.664
2023-04-12T14:43:07.305Z,988.066
2023-04-12T15:03:09.169Z,988.039
2023-04-12T15:23:07.195Z,988.132
2023-04-12T15:43:07.235Z,988.212
2023-04-12T16:03:09.766Z,988.124
2023-04-12T16:23:07.753Z,988.899
2023-04-12T16:43:07.728Z,989.284
2023-04-12T17:03:09.282Z,989.587
2023-04-12T17:23:07.549Z,989.716
2023-04-12T17:43:08.189Z,990.053
2023-04-12T18:03:09.460Z,990.29
2023-04-12T18:23:07.451Z,990.141
2023-04-12T18:43:07.587Z,990.342
2023-04-12T19:03:08.920Z,990.472
2023-04-12T19:23:07.745Z,990.627
2023-04-12T19:43:07.925Z,990.486
2023-04-12T20:03:09.184Z,990.488
2023-04-12T20:23:07.147Z,990.587
2023-04-12T20:43:07.335Z,990.707
2023-04-12T21:03:08.990Z,990.489
2023-04-12T21:23:08.659Z,990.499
2023-04-12T21:43:07.845Z,990.391
2023-04-12T22:03:08.971Z,990.436
2023-04-12T22:23:07.855Z,990.405
2023-04-12T22:43:07.540Z,990.5
2023-04-12T23:03:08.863Z,990.29
2023-04-12T23:23:07.883Z,990.175
2023-04-12T23:43:07.501Z,989.918
